sensor_id;sensor_type;location;lat;lon;timestamp;P1;durP1;ratioP1;P2;durP2;ratioP2
4274;SDS011;2151;50.988;11.068;2022-10-20T00:00:54;131.80;;;6.90;;
4274;SDS011;2151;50.988;11.068;2022-10-20T00:03:21;131.50;;;6.67;;
4274;SDS011;2151;50.988;11.068;2022-10-20T00:05:48;130.83;;;6.57;;
4274;SDS011;2151;50.988;11.068;2022-10-20T00:08:15;131.17;;;6.67;;
4274;SDS011;2151;50.988;11.068;2022-10-20T00:10:41;130.67;;;6.63;;
4274;SDS011;2151;50.988;11.068;2022-10-20T00:13:08;131.03;;;6.57;;
4274;SDS011;2151;50.988;11.068;2022-10-20T00:15:34;129.37;;;6.70;;
4274;SDS011;2151;50.988;11.068;2022-10-20T00:18:00;130.60;;;6.43;;
4274;SDS011;2151;50.988;11.068;2022-10-20T00:20:27;130.10;;;6.67;;
4274;SDS011;2151;50.988;11.068;2022-10-20T00:22:53;130.80;;;6.57;;
4274;SDS011;2151;50.988;11.068;2022-10-20T00:25:19;131.37;;;6.70;;
4274;SDS011;2151;50.988;11.068;2022-10-20T00:27:46;130.67;;;6.33;;
4274;SDS011;2151;50.988;11.068;2022-10-20T00:30:12;130.97;;;6.47;;
4274;SDS011;2151;50.988;11.068;2022-10-20T00:32:38;130.20;;;6.53;;
4274;SDS011;2151;50.988;11.068;2022-10-20T00:35:05;131.97;;;7.10;;
4274;SDS011;2151;50.988;11.068;2022-10-20T00:37:31;131.40;;;6.43;;
4274;SDS011;2151;50.988;11.068;2022-10-20T00:39:58;131.20;;;6.37;;
4274;SDS011;2151;50.988;11.068;2022-10-20T00:42:25;131.30;;;6.77;;
4274;SDS011;2151;50.988;11.068;2022-10-20T00:44:52;131.57;;;6.43;;
4274;SDS011;2151;50.988;11.068;2022-10-20T00:49:59;131.53;;;6.63;;
4274;SDS011;2151;50.988;11.068;2022-10-20T00:52:27;132.07;;;6.53;;
4274;SDS011;2151;50.988;11.068;2022-10-20T00:54:54;131.93;;;6.67;;
4274;SDS011;2151;50.988;11.068;2022-10-20T00:57:20;130.67;;;6.63;;
4274;SDS011;2151;50.988;11.068;2022-10-20T00:59:46;130.57;;;6.63;;
4274;SDS011;2151;50.988;11.068;2022-10-20T01:02:13;131.20;;;6.33;;
4274;SDS011;2151;50.988;11.068;2022-10-20T01:04:39;130.57;;;6.37;;
4274;SDS011;2151;50.988;11.068;2022-10-20T01:07:06;131.43;;;6.43;;
4274;SDS011;2151;50.988;11.068;2022-10-20T01:09:33;132.17;;;7.23;;
4274;SDS011;2151;50.988;11.068;2022-10-20T01:14:30;131.27;;;6.80;;
4274;SDS011;2151;50.988;11.068;2022-10-20T01:17:42;131.37;;;6.63;;
4274;SDS011;2151;50.988;11.068;2022-10-20T01:25:05;131.67;;;6.73;;
4274;SDS011;2151;50.988;11.068;2022-10-20T01:27:37;131.87;;;6.57;;
4274;SDS011;2151;50.988;11.068;2022-10-20T01:30:08;132.20;;;6.70;;
4274;SDS011;2151;50.988;11.068;2022-10-20T01:37:37;131.47;;;6.67;;
4274;SDS011;2151;50.988;11.068;2022-10-20T01:40:16;131.50;;;6.73;;
4274;SDS011;2151;50.988;11.068;2022-10-20T01:42:45;132.27;;;7.00;;
4274;SDS011;2151;50.988;11.068;2022-10-20T01:45:13;131.47;;;6.53;;
4274;SDS011;2151;50.988;11.068;2022-10-20T01:47:40;132.37;;;6.63;;
4274;SDS011;2151;50.988;11.068;2022-10-20T01:50:07;131.07;;;6.63;;
4274;SDS011;2151;50.988;11.068;2022-10-20T01:52:36;131.40;;;6.80;;
4274;SDS011;2151;50.988;11.068;2022-10-20T01:55:09;131.90;;;6.53;;
4274;SDS011;2151;50.988;11.068;2022-10-20T01:57:41;132.27;;;6.93;;
4274;SDS011;2151;50.988;11.068;2022-10-20T02:00:13;131.50;;;6.67;;
4274;SDS011;2151;50.988;11.068;2022-10-20T02:05:32;131.90;;;6.53;;
4274;SDS011;2151;50.988;11.068;2022-10-20T02:08:03;131.90;;;6.63;;
4274;SDS011;2151;50.988;11.068;2022-10-20T02:10:36;131.57;;;6.77;;
4274;SDS011;2151;50.988;11.068;2022-10-20T02:13:06;131.73;;;6.47;;
4274;SDS011;2151;50.988;11.068;2022-10-20T02:15:35;132.10;;;6.73;;
4274;SDS011;2151;50.988;11.068;2022-10-20T02:18:02;132.77;;;6.97;;
4274;SDS011;2151;50.988;11.068;2022-10-20T02:20:30;132.00;;;7.00;;
4274;SDS011;2151;50.988;11.068;2022-10-20T02:22:57;131.37;;;6.37;;
4274;SDS011;2151;50.988;11.068;2022-10-20T02:25:25;130.60;;;6.30;;
4274;SDS011;2151;50.988;11.068;2022-10-20T02:27:52;131.87;;;7.20;;
4274;SDS011;2151;50.988;11.068;2022-10-20T02:30:19;131.43;;;7.20;;
4274;SDS011;2151;50.988;11.068;2022-10-20T02:32:47;131.70;;;7.00;;
4274;SDS011;2151;50.988;11.068;2022-10-20T02:35:19;132.10;;;7.50;;
4274;SDS011;2151;50.988;11.068;2022-10-20T02:37:46;131.53;;;6.63;;
4274;SDS011;2151;50.988;11.068;2022-10-20T02:40:13;132.10;;;6.47;;
4274;SDS011;2151;50.988;11.068;2022-10-20T02:42:39;132.57;;;7.50;;
4274;SDS011;2151;50.988;11.068;2022-10-20T02:45:08;131.93;;;6.80;;
4274;SDS011;2151;50.988;11.068;2022-10-20T02:47:35;131.80;;;6.63;;
4274;SDS011;2151;50.988;11.068;2022-10-20T02:50:02;132.67;;;6.67;;
4274;SDS011;2151;50.988;11.068;2022-10-20T02:52:28;131.37;;;6.80;;
4274;SDS011;2151;50.988;11.068;2022-10-20T02:54:55;132.37;;;7.17;;
4274;SDS011;2151;50.988;11.068;2022-10-20T02:57:21;132.67;;;6.93;;
4274;SDS011;2151;50.988;11.068;2022-10-20T02:59:47;131.60;;;6.77;;
4274;SDS011;2151;50.988;11.068;2022-10-20T03:02:14;131.73;;;6.63;;
4274;SDS011;2151;50.988;11.068;2022-10-20T03:04:40;131.87;;;6.80;;
4274;SDS011;2151;50.988;11.068;2022-10-20T03:07:07;132.27;;;6.70;;
4274;SDS011;2151;50.988;11.068;2022-10-20T03:09:33;132.40;;;6.57;;
4274;SDS011;2151;50.988;11.068;2022-10-20T03:11:59;131.57;;;6.47;;
4274;SDS011;2151;50.988;11.068;2022-10-20T03:14:26;131.37;;;6.90;;
4274;SDS011;2151;50.988;11.068;2022-10-20T03:16:52;131.97;;;6.57;;
4274;SDS011;2151;50.988;11.068;2022-10-20T03:19:18;131.90;;;7.03;;
4274;SDS011;2151;50.988;11.068;2022-10-20T03:21:45;132.00;;;6.47;;
4274;SDS011;2151;50.988;11.068;2022-10-20T03:24:11;132.03;;;6.67;;
4274;SDS011;2151;50.988;11.068;2022-10-20T03:26:38;131.67;;;6.80;;
4274;SDS011;2151;50.988;11.068;2022-10-20T03:29:04;131.77;;;6.60;;
4274;SDS011;2151;50.988;11.068;2022-10-20T03:31:31;133.53;;;7.50;;
4274;SDS011;2151;50.988;11.068;2022-10-20T03:33:59;131.90;;;6.73;;
4274;SDS011;2151;50.988;11.068;2022-10-20T03:36:25;133.27;;;7.60;;
4274;SDS011;2151;50.988;11.068;2022-10-20T03:38:52;132.77;;;7.00;;
4274;SDS011;2151;50.988;11.068;2022-10-20T03:41:18;132.67;;;6.63;;
4274;SDS011;2151;50.988;11.068;2022-10-20T03:43:44;132.40;;;6.47;;
4274;SDS011;2151;50.988;11.068;2022-10-20T03:46:11;133.07;;;6.87;;
4274;SDS011;2151;50.988;11.068;2022-10-20T03:48:37;131.90;;;6.63;;
4274;SDS011;2151;50.988;11.068;2022-10-20T03:51:04;132.50;;;7.17;;
4274;SDS011;2151;50.988;11.068;2022-10-20T03:53:31;132.50;;;7.00;;
4274;SDS011;2151;50.988;11.068;2022-10-20T03:55:58;131.07;;;6.57;;
4274;SDS011;2151;50.988;11.068;2022-10-20T03:58:24;131.77;;;6.53;;
4274;SDS011;2151;50.988;11.068;2022-10-20T04:00:50;133.47;;;7.30;;
4274;SDS011;2151;50.988;11.068;2022-10-20T04:03:17;132.60;;;6.73;;
4274;SDS011;2151;50.988;11.068;2022-10-20T04:05:43;132.80;;;6.73;;
4274;SDS011;2151;50.988;11.068;2022-10-20T04:08:10;133.03;;;6.93;;
4274;SDS011;2151;50.988;11.068;2022-10-20T04:10:36;133.10;;;6.63;;
4274;SDS011;2151;50.988;11.068;2022-10-20T04:13:02;133.03;;;6.73;;
4274;SDS011;2151;50.988;11.068;2022-10-20T04:15:30;132.40;;;6.67;;
4274;SDS011;2151;50.988;11.068;2022-10-20T04:17:56;133.17;;;6.60;;
4274;SDS011;2151;50.988;11.068;2022-10-20T04:20:23;133.40;;;6.77;;
4274;SDS011;2151;50.988;11.068;2022-10-20T04:22:49;133.40;;;6.63;;
4274;SDS011;2151;50.988;11.068;2022-10-20T04:25:16;133.20;;;7.17;;
4274;SDS011;2151;50.988;11.068;2022-10-20T04:27:43;132.50;;;7.13;;
4274;SDS011;2151;50.988;11.068;2022-10-20T04:30:09;133.30;;;7.20;;
4274;SDS011;2151;50.988;11.068;2022-10-20T04:32:36;133.47;;;6.73;;
4274;SDS011;2151;50.988;11.068;2022-10-20T04:35:02;133.37;;;7.33;;
4274;SDS011;2151;50.988;11.068;2022-10-20T04:37:28;133.20;;;6.90;;
4274;SDS011;2151;50.988;11.068;2022-10-20T04:39:55;134.13;;;7.40;;
4274;SDS011;2151;50.988;11.068;2022-10-20T04:42:22;132.60;;;6.87;;
4274;SDS011;2151;50.988;11.068;2022-10-20T04:44:49;133.27;;;7.10;;
4274;SDS011;2151;50.988;11.068;2022-10-20T04:47:15;133.27;;;7.20;;
4274;SDS011;2151;50.988;11.068;2022-10-20T04:49:42;132.87;;;6.87;;
4274;SDS011;2151;50.988;11.068;2022-10-20T04:52:09;133.23;;;7.00;;
4274;SDS011;2151;50.988;11.068;2022-10-20T04:54:36;131.47;;;6.63;;
4274;SDS011;2151;50.988;11.068;2022-10-20T04:57:03;139.48;;;8.32;;
4274;SDS011;2151;50.988;11.068;2022-10-20T04:59:31;132.20;;;6.57;;
4274;SDS011;2151;50.988;11.068;2022-10-20T05:01:57;133.30;;;7.00;;
4274;SDS011;2151;50.988;11.068;2022-10-20T05:04:24;134.07;;;7.30;;
4274;SDS011;2151;50.988;11.068;2022-10-20T05:06:50;132.27;;;7.27;;
4274;SDS011;2151;50.988;11.068;2022-10-20T05:09:17;133.00;;;6.67;;
4274;SDS011;2151;50.988;11.068;2022-10-20T05:11:44;133.10;;;6.80;;
4274;SDS011;2151;50.988;11.068;2022-10-20T05:14:11;132.80;;;7.00;;
4274;SDS011;2151;50.988;11.068;2022-10-20T05:16:37;133.40;;;7.23;;
4274;SDS011;2151;50.988;11.068;2022-10-20T05:19:04;134.17;;;7.63;;
4274;SDS011;2151;50.988;11.068;2022-10-20T05:21:30;133.00;;;6.73;;
4274;SDS011;2151;50.988;11.068;2022-10-20T05:24:01;133.60;;;7.00;;
4274;SDS011;2151;50.988;11.068;2022-10-20T05:26:29;133.40;;;6.63;;
4274;SDS011;2151;50.988;11.068;2022-10-20T05:28:59;133.00;;;7.27;;
4274;SDS011;2151;50.988;11.068;2022-10-20T05:31:26;133.10;;;6.67;;
4274;SDS011;2151;50.988;11.068;2022-10-20T05:33:53;133.00;;;6.87;;
4274;SDS011;2151;50.988;11.068;2022-10-20T05:36:22;133.33;;;6.77;;
4274;SDS011;2151;50.988;11.068;2022-10-20T05:38:49;133.40;;;6.50;;
4274;SDS011;2151;50.988;11.068;2022-10-20T05:41:18;133.30;;;7.00;;
4274;SDS011;2151;50.988;11.068;2022-10-20T05:43:48;132.37;;;7.00;;
4274;SDS011;2151;50.988;11.068;2022-10-20T05:46:15;132.90;;;6.63;;
4274;SDS011;2151;50.988;11.068;2022-10-20T05:48:42;132.73;;;6.57;;
4274;SDS011;2151;50.988;11.068;2022-10-20T05:51:13;133.20;;;6.97;;
4274;SDS011;2151;50.988;11.068;2022-10-20T05:53:40;133.87;;;7.93;;
4274;SDS011;2151;50.988;11.068;2022-10-20T05:56:08;133.27;;;6.97;;
4274;SDS011;2151;50.988;11.068;2022-10-20T05:58:35;132.73;;;7.40;;
4274;SDS011;2151;50.988;11.068;2022-10-20T06:01:09;132.40;;;7.20;;
4274;SDS011;2151;50.988;11.068;2022-10-20T06:03:52;133.47;;;6.77;;
4274;SDS011;2151;50.988;11.068;2022-10-20T06:06:20;134.30;;;7.60;;
4274;SDS011;2151;50.988;11.068;2022-10-20T06:08:47;133.20;;;6.87;;
4274;SDS011;2151;50.988;11.068;2022-10-20T06:11:14;134.83;;;7.07;;
4274;SDS011;2151;50.988;11.068;2022-10-20T06:13:40;133.00;;;6.93;;
4274;SDS011;2151;50.988;11.068;2022-10-20T06:16:10;132.80;;;7.00;;
4274;SDS011;2151;50.988;11.068;2022-10-20T06:18:37;134.00;;;7.70;;
4274;SDS011;2151;50.988;11.068;2022-10-20T06:21:05;133.77;;;6.63;;
4274;SDS011;2151;50.988;11.068;2022-10-20T06:23:32;132.57;;;6.67;;
4274;SDS011;2151;50.988;11.068;2022-10-20T06:26:06;133.40;;;6.77;;
4274;SDS011;2151;50.988;11.068;2022-10-20T06:28:33;133.20;;;6.57;;
4274;SDS011;2151;50.988;11.068;2022-10-20T06:31:00;131.30;;;6.87;;
4274;SDS011;2151;50.988;11.068;2022-10-20T06:33:28;133.10;;;6.50;;
4274;SDS011;2151;50.988;11.068;2022-10-20T06:35:58;132.70;;;6.57;;
4274;SDS011;2151;50.988;11.068;2022-10-20T06:38:26;133.10;;;6.57;;
4274;SDS011;2151;50.988;11.068;2022-10-20T06:40:53;132.77;;;6.63;;
4274;SDS011;2151;50.988;11.068;2022-10-20T06:43:19;133.07;;;6.77;;
4274;SDS011;2151;50.988;11.068;2022-10-20T06:45:53;133.17;;;6.67;;
4274;SDS011;2151;50.988;11.068;2022-10-20T06:48:19;133.57;;;7.20;;
4274;SDS011;2151;50.988;11.068;2022-10-20T06:50:46;133.30;;;7.00;;
4274;SDS011;2151;50.988;11.068;2022-10-20T06:53:12;132.90;;;6.70;;
4274;SDS011;2151;50.988;11.068;2022-10-20T06:55:38;138.47;;;8.40;;
4274;SDS011;2151;50.988;11.068;2022-10-20T06:58:05;135.63;;;7.50;;
4274;SDS011;2151;50.988;11.068;2022-10-20T07:00:31;133.47;;;6.73;;
4274;SDS011;2151;50.988;11.068;2022-10-20T07:02:57;133.47;;;7.50;;
4274;SDS011;2151;50.988;11.068;2022-10-20T07:05:24;133.57;;;7.10;;
4274;SDS011;2151;50.988;11.068;2022-10-20T07:07:53;132.40;;;6.63;;
4274;SDS011;2151;50.988;11.068;2022-10-20T07:10:19;133.17;;;7.43;;
4274;SDS011;2151;50.988;11.068;2022-10-20T07:12:46;135.90;;;8.33;;
4274;SDS011;2151;50.988;11.068;2022-10-20T07:15:12;133.37;;;7.10;;
4274;SDS011;2151;50.988;11.068;2022-10-20T07:17:39;133.10;;;6.63;;
4274;SDS011;2151;50.988;11.068;2022-10-20T07:20:05;131.77;;;7.20;;
4274;SDS011;2151;50.988;11.068;2022-10-20T07:22:32;133.47;;;7.40;;
4274;SDS011;2151;50.988;11.068;2022-10-20T07:24:59;132.17;;;6.70;;
4274;SDS011;2151;50.988;11.068;2022-10-20T07:27:31;133.47;;;7.10;;
4274;SDS011;2151;50.988;11.068;2022-10-20T07:29:57;132.50;;;7.00;;
4274;SDS011;2151;50.988;11.068;2022-10-20T07:32:24;132.47;;;6.93;;
4274;SDS011;2151;50.988;11.068;2022-10-20T07:34:50;132.90;;;6.93;;
4274;SDS011;2151;50.988;11.068;2022-10-20T07:37:17;131.77;;;6.87;;
4274;SDS011;2151;50.988;11.068;2022-10-20T07:39:43;133.27;;;7.17;;
4274;SDS011;2151;50.988;11.068;2022-10-20T07:42:09;133.27;;;7.10;;
4274;SDS011;2151;50.988;11.068;2022-10-20T07:44:36;132.70;;;7.13;;
4274;SDS011;2151;50.988;11.068;2022-10-20T07:47:02;132.70;;;6.93;;
4274;SDS011;2151;50.988;11.068;2022-10-20T07:49:28;132.30;;;6.83;;
4274;SDS011;2151;50.988;11.068;2022-10-20T07:52:10;132.10;;;6.67;;
4274;SDS011;2151;50.988;11.068;2022-10-20T07:54:37;131.07;;;6.43;;
4274;SDS011;2151;50.988;11.068;2022-10-20T07:57:03;132.27;;;6.77;;
4274;SDS011;2151;50.988;11.068;2022-10-20T07:59:30;131.77;;;6.47;;
4274;SDS011;2151;50.988;11.068;2022-10-20T08:01:56;131.97;;;6.47;;
4274;SDS011;2151;50.988;11.068;2022-10-20T08:04:25;131.60;;;6.50;;
4274;SDS011;2151;50.988;11.068;2022-10-20T08:06:51;131.10;;;6.40;;
4274;SDS011;2151;50.988;11.068;2022-10-20T08:09:18;131.20;;;6.37;;
4274;SDS011;2151;50.988;11.068;2022-10-20T08:11:44;131.20;;;6.87;;
4274;SDS011;2151;50.988;11.068;2022-10-20T08:14:11;131.03;;;7.70;;
4274;SDS011;2151;50.988;11.068;2022-10-20T08:16:37;130.20;;;6.70;;
4274;SDS011;2151;50.988;11.068;2022-10-20T08:19:17;130.57;;;6.57;;
4274;SDS011;2151;50.988;11.068;2022-10-20T08:22:00;130.47;;;5.87;;
4274;SDS011;2151;50.988;11.068;2022-10-20T08:24:28;128.60;;;5.90;;
4274;SDS011;2151;50.988;11.068;2022-10-20T08:26:54;129.87;;;6.47;;
4274;SDS011;2151;50.988;11.068;2022-10-20T08:29:21;129.40;;;6.10;;
4274;SDS011;2151;50.988;11.068;2022-10-20T08:31:47;128.37;;;6.17;;
4274;SDS011;2151;50.988;11.068;2022-10-20T08:34:14;129.03;;;6.23;;
4274;SDS011;2151;50.988;11.068;2022-10-20T08:36:40;130.23;;;6.53;;
4274;SDS011;2151;50.988;11.068;2022-10-20T08:39:07;128.27;;;6.13;;
4274;SDS011;2151;50.988;11.068;2022-10-20T08:41:41;130.97;;;6.47;;
4274;SDS011;2151;50.988;11.068;2022-10-20T08:44:29;129.67;;;6.23;;
4274;SDS011;2151;50.988;11.068;2022-10-20T08:46:56;129.27;;;6.37;;
4274;SDS011;2151;50.988;11.068;2022-10-20T08:49:25;128.50;;;6.37;;
4274;SDS011;2151;50.988;11.068;2022-10-20T08:51:54;129.00;;;6.00;;
4274;SDS011;2151;50.988;11.068;2022-10-20T08:54:20;129.27;;;6.07;;
4274;SDS011;2151;50.988;11.068;2022-10-20T08:56:47;128.80;;;5.83;;
4274;SDS011;2151;50.988;11.068;2022-10-20T09:01:48;128.40;;;5.97;;
4274;SDS011;2151;50.988;11.068;2022-10-20T09:04:19;128.47;;;6.70;;
4274;SDS011;2151;50.988;11.068;2022-10-20T09:06:47;127.97;;;6.10;;
4274;SDS011;2151;50.988;11.068;2022-10-20T09:09:15;127.73;;;6.00;;
4274;SDS011;2151;50.988;11.068;2022-10-20T09:11:42;128.50;;;6.20;;
4274;SDS011;2151;50.988;11.068;2022-10-20T09:14:09;127.43;;;5.60;;
4274;SDS011;2151;50.988;11.068;2022-10-20T09:16:37;128.30;;;6.40;;
4274;SDS011;2151;50.988;11.068;2022-10-20T09:19:24;127.87;;;6.07;;
4274;SDS011;2151;50.988;11.068;2022-10-20T09:21:53;128.10;;;7.07;;
4274;SDS011;2151;50.988;11.068;2022-10-20T09:24:20;132.30;;;6.30;;
4274;SDS011;2151;50.988;11.068;2022-10-20T09:26:47;126.50;;;6.40;;
4274;SDS011;2151;50.988;11.068;2022-10-20T09:29:33;129.37;;;6.70;;
4274;SDS011;2151;50.988;11.068;2022-10-20T09:32:00;127.77;;;5.87;;
4274;SDS011;2151;50.988;11.068;2022-10-20T09:34:43;131.30;;;6.80;;
4274;SDS011;2151;50.988;11.068;2022-10-20T09:42:06;126.27;;;5.83;;
4274;SDS011;2151;50.988;11.068;2022-10-20T09:44:59;126.20;;;5.83;;
4274;SDS011;2151;50.988;11.068;2022-10-20T09:47:24;125.47;;;6.03;;
4274;SDS011;2151;50.988;11.068;2022-10-20T09:50:01;125.90;;;6.13;;
4274;SDS011;2151;50.988;11.068;2022-10-20T09:52:29;126.73;;;6.50;;
4274;SDS011;2151;50.988;11.068;2022-10-20T09:55:04;124.67;;;5.73;;
4274;SDS011;2151;50.988;11.068;2022-10-20T09:57:32;124.67;;;5.97;;
4274;SDS011;2151;50.988;11.068;2022-10-20T09:59:59;124.63;;;5.90;;
4274;SDS011;2151;50.988;11.068;2022-10-20T10:02:44;124.90;;;6.07;;
4274;SDS011;2151;50.988;11.068;2022-10-20T10:05:15;124.57;;;6.00;;
4274;SDS011;2151;50.988;11.068;2022-10-20T10:07:41;125.97;;;6.97;;
4274;SDS011;2151;50.988;11.068;2022-10-20T10:12:50;124.00;;;5.77;;
4274;SDS011;2151;50.988;11.068;2022-10-20T10:17:49;123.27;;;5.43;;
4274;SDS011;2151;50.988;11.068;2022-10-20T10:22:42;122.40;;;5.63;;
4274;SDS011;2151;50.988;11.068;2022-10-20T10:25:21;123.27;;;5.53;;
4274;SDS011;2151;50.988;11.068;2022-10-20T10:27:57;123.10;;;5.93;;
4274;SDS011;2151;50.988;11.068;2022-10-20T10:32:54;122.87;;;5.80;;
4274;SDS011;2151;50.988;11.068;2022-10-20T10:35:28;122.53;;;5.93;;
4274;SDS011;2151;50.988;11.068;2022-10-20T10:37:56;122.70;;;5.77;;
4274;SDS011;2151;50.988;11.068;2022-10-20T10:48:29;120.90;;;5.50;;
4274;SDS011;2151;50.988;11.068;2022-10-20T10:53:30;121.63;;;5.90;;
4274;SDS011;2151;50.988;11.068;2022-10-20T10:58:46;121.87;;;6.30;;
4274;SDS011;2151;50.988;11.068;2022-10-20T11:04:03;121.33;;;6.17;;
4274;SDS011;2151;50.988;11.068;2022-10-20T11:09:08;120.73;;;6.93;;
4274;SDS011;2151;50.988;11.068;2022-10-20T11:22:20;125.17;;;13.70;;
4274;SDS011;2151;50.988;11.068;2022-10-20T11:27:23;125.07;;;14.60;;
4274;SDS011;2151;50.988;11.068;2022-10-20T11:29:52;126.77;;;17.90;;
4274;SDS011;2151;50.988;11.068;2022-10-20T11:32:27;125.60;;;15.37;;
4274;SDS011;2151;50.988;11.068;2022-10-20T11:37:44;127.47;;;17.97;;
4274;SDS011;2151;50.988;11.068;2022-10-20T11:42:56;126.80;;;16.57;;
4274;SDS011;2151;50.988;11.068;2022-10-20T11:45:29;127.87;;;17.57;;
4274;SDS011;2151;50.988;11.068;2022-10-20T11:48:17;127.57;;;16.80;;
4274;SDS011;2151;50.988;11.068;2022-10-20T11:50:52;128.77;;;17.17;;
4274;SDS011;2151;50.988;11.068;2022-10-20T11:55:58;130.60;;;15.90;;
4274;SDS011;2151;50.988;11.068;2022-10-20T12:03:53;130.07;;;11.30;;
4274;SDS011;2151;50.988;11.068;2022-10-20T12:06:26;128.77;;;10.17;;
4274;SDS011;2151;50.988;11.068;2022-10-20T12:09:05;130.07;;;10.47;;
4274;SDS011;2151;50.988;11.068;2022-10-20T12:22:00;124.47;;;7.10;;
4274;SDS011;2151;50.988;11.068;2022-10-20T12:24:43;125.43;;;6.93;;
4274;SDS011;2151;50.988;11.068;2022-10-20T12:27:28;124.50;;;6.53;;
4274;SDS011;2151;50.988;11.068;2022-10-20T12:29:56;123.40;;;6.70;;
4274;SDS011;2151;50.988;11.068;2022-10-20T12:32:24;125.20;;;6.60;;
4274;SDS011;2151;50.988;11.068;2022-10-20T12:34:54;121.60;;;6.27;;
4274;SDS011;2151;50.988;11.068;2022-10-20T12:39:51;121.73;;;6.47;;
4274;SDS011;2151;50.988;11.068;2022-10-20T12:44:47;121.90;;;6.27;;
4274;SDS011;2151;50.988;11.068;2022-10-20T12:47:22;123.13;;;6.47;;
4274;SDS011;2151;50.988;11.068;2022-10-20T12:50:02;123.57;;;6.80;;
4274;SDS011;2151;50.988;11.068;2022-10-20T12:52:31;124.37;;;6.70;;
4274;SDS011;2151;50.988;11.068;2022-10-20T12:55:03;126.00;;;7.37;;
4274;SDS011;2151;50.988;11.068;2022-10-20T12:57:34;124.77;;;7.13;;
4274;SDS011;2151;50.988;11.068;2022-10-20T13:00:05;128.70;;;7.67;;
4274;SDS011;2151;50.988;11.068;2022-10-20T13:02:42;128.57;;;8.17;;
4274;SDS011;2151;50.988;11.068;2022-10-20T13:10:34;127.20;;;8.37;;
4274;SDS011;2151;50.988;11.068;2022-10-20T13:23:15;128.77;;;10.70;;
4274;SDS011;2151;50.988;11.068;2022-10-20T13:25:43;128.57;;;10.50;;
4274;SDS011;2151;50.988;11.068;2022-10-20T13:39:16;128.60;;;10.93;;
4274;SDS011;2151;50.988;11.068;2022-10-20T13:47:37;128.50;;;11.03;;
4274;SDS011;2151;50.988;11.068;2022-10-20T13:52:21;127.87;;;9.33;;
4274;SDS011;2151;50.988;11.068;2022-10-20T13:54:48;127.03;;;9.27;;
4274;SDS011;2151;50.988;11.068;2022-10-20T13:57:31;127.87;;;8.90;;
4274;SDS011;2151;50.988;11.068;2022-10-20T13:59:59;128.40;;;9.00;;
4274;SDS011;2151;50.988;11.068;2022-10-20T14:02:27;127.30;;;8.37;;
4274;SDS011;2151;50.988;11.068;2022-10-20T14:05:01;127.80;;;8.23;;
4274;SDS011;2151;50.988;11.068;2022-10-20T14:07:34;126.50;;;7.33;;
4274;SDS011;2151;50.988;11.068;2022-10-20T14:10:01;126.23;;;7.40;;
4274;SDS011;2151;50.988;11.068;2022-10-20T14:12:27;129.00;;;7.70;;
4274;SDS011;2151;50.988;11.068;2022-10-20T14:14:54;126.90;;;7.30;;
4274;SDS011;2151;50.988;11.068;2022-10-20T14:17:27;127.17;;;7.87;;
4274;SDS011;2151;50.988;11.068;2022-10-20T14:22:41;127.47;;;8.23;;
4274;SDS011;2151;50.988;11.068;2022-10-20T14:25:08;128.50;;;8.77;;
4274;SDS011;2151;50.988;11.068;2022-10-20T14:27:35;128.13;;;9.20;;
4274;SDS011;2151;50.988;11.068;2022-10-20T14:30:05;129.30;;;10.00;;
4274;SDS011;2151;50.988;11.068;2022-10-20T14:32:34;129.07;;;10.10;;
4274;SDS011;2151;50.988;11.068;2022-10-20T14:35:13;129.47;;;11.20;;
4274;SDS011;2151;50.988;11.068;2022-10-20T14:37:44;130.57;;;12.27;;
4274;SDS011;2151;50.988;11.068;2022-10-20T14:40:18;130.10;;;12.40;;
4274;SDS011;2151;50.988;11.068;2022-10-20T14:42:45;130.67;;;12.57;;
4274;SDS011;2151;50.988;11.068;2022-10-20T14:45:19;131.17;;;13.30;;
4274;SDS011;2151;50.988;11.068;2022-10-20T14:47:45;130.43;;;12.37;;
4274;SDS011;2151;50.988;11.068;2022-10-20T14:50:20;130.47;;;13.33;;
4274;SDS011;2151;50.988;11.068;2022-10-20T14:52:47;130.80;;;13.13;;
4274;SDS011;2151;50.988;11.068;2022-10-20T14:55:26;130.27;;;12.73;;
4274;SDS011;2151;50.988;11.068;2022-10-20T14:57:53;130.47;;;13.03;;
4274;SDS011;2151;50.988;11.068;2022-10-20T15:00:28;129.87;;;13.37;;
4274;SDS011;2151;50.988;11.068;2022-10-20T15:02:55;129.80;;;12.70;;
4274;SDS011;2151;50.988;11.068;2022-10-20T15:07:56;131.37;;;14.07;;
4274;SDS011;2151;50.988;11.068;2022-10-20T15:10:24;129.97;;;12.57;;
4274;SDS011;2151;50.988;11.068;2022-10-20T15:12:52;129.27;;;12.60;;
4274;SDS011;2151;50.988;11.068;2022-10-20T15:15:34;130.43;;;14.03;;
4274;SDS011;2151;50.988;11.068;2022-10-20T15:20:38;129.87;;;14.77;;
4274;SDS011;2151;50.988;11.068;2022-10-20T15:23:14;129.77;;;14.40;;
4274;SDS011;2151;50.988;11.068;2022-10-20T15:28:13;128.30;;;16.80;;
4274;SDS011;2151;50.988;11.068;2022-10-20T15:30:43;129.60;;;16.53;;
4274;SDS011;2151;50.988;11.068;2022-10-20T15:33:09;129.20;;;17.10;;
4274;SDS011;2151;50.988;11.068;2022-10-20T15:35:36;128.53;;;16.47;;
4274;SDS011;2151;50.988;11.068;2022-10-20T15:38:06;127.40;;;16.67;;
4274;SDS011;2151;50.988;11.068;2022-10-20T15:40:33;126.70;;;16.13;;
4274;SDS011;2151;50.988;11.068;2022-10-20T15:42:59;126.17;;;15.87;;
4274;SDS011;2151;50.988;11.068;2022-10-20T15:45:26;127.70;;;15.00;;
4274;SDS011;2151;50.988;11.068;2022-10-20T15:47:53;126.47;;;16.07;;
4274;SDS011;2151;50.988;11.068;2022-10-20T15:50:19;125.40;;;13.57;;
4274;SDS011;2151;50.988;11.068;2022-10-20T15:52:50;125.20;;;13.60;;
4274;SDS011;2151;50.988;11.068;2022-10-20T15:57:48;125.47;;;12.57;;
4274;SDS011;2151;50.988;11.068;2022-10-20T16:00:15;124.53;;;12.50;;
4274;SDS011;2151;50.988;11.068;2022-10-20T16:02:42;124.20;;;11.30;;
4274;SDS011;2151;50.988;11.068;2022-10-20T16:05:08;122.27;;;9.80;;
4274;SDS011;2151;50.988;11.068;2022-10-20T16:07:34;122.70;;;9.00;;
4274;SDS011;2151;50.988;11.068;2022-10-20T16:10:02;122.37;;;8.37;;
4274;SDS011;2151;50.988;11.068;2022-10-20T16:12:29;121.97;;;8.40;;
4274;SDS011;2151;50.988;11.068;2022-10-20T16:14:55;122.20;;;8.03;;
4274;SDS011;2151;50.988;11.068;2022-10-20T16:17:21;122.40;;;7.57;;
4274;SDS011;2151;50.988;11.068;2022-10-20T16:19:49;120.70;;;7.40;;
4274;SDS011;2151;50.988;11.068;2022-10-20T16:22:22;121.17;;;7.20;;
4274;SDS011;2151;50.988;11.068;2022-10-20T16:24:48;121.83;;;7.40;;
4274;SDS011;2151;50.988;11.068;2022-10-20T16:27:15;122.10;;;7.07;;
4274;SDS011;2151;50.988;11.068;2022-10-20T16:29:41;121.77;;;7.90;;
4274;SDS011;2151;50.988;11.068;2022-10-20T16:32:12;120.77;;;6.60;;
4274;SDS011;2151;50.988;11.068;2022-10-20T16:34:39;122.00;;;7.73;;
4274;SDS011;2151;50.988;11.068;2022-10-20T16:37:05;121.17;;;6.50;;
4274;SDS011;2151;50.988;11.068;2022-10-20T16:39:32;122.20;;;6.50;;
4274;SDS011;2151;50.988;11.068;2022-10-20T16:41:58;121.17;;;6.40;;
4274;SDS011;2151;50.988;11.068;2022-10-20T16:44:24;121.07;;;6.47;;
4274;SDS011;2151;50.988;11.068;2022-10-20T16:46:51;121.37;;;6.30;;
4274;SDS011;2151;50.988;11.068;2022-10-20T16:49:17;122.20;;;6.80;;
4274;SDS011;2151;50.988;11.068;2022-10-20T16:51:44;121.27;;;7.07;;
4274;SDS011;2151;50.988;11.068;2022-10-20T16:54:10;121.57;;;6.90;;
4274;SDS011;2151;50.988;11.068;2022-10-20T16:56:37;122.00;;;6.90;;
4274;SDS011;2151;50.988;11.068;2022-10-20T16:59:03;121.17;;;6.73;;
4274;SDS011;2151;50.988;11.068;2022-10-20T17:01:29;121.83;;;6.33;;
4274;SDS011;2151;50.988;11.068;2022-10-20T17:03:57;121.67;;;6.37;;
4274;SDS011;2151;50.988;11.068;2022-10-20T17:06:23;121.73;;;6.17;;